Time;durP1;ratioP1;P1;durP2;ratioP2;P2;SDS_P1;SDS_P2;PMS_P1;PMS_P2;Temp;Humidity;BMP_temperature;BMP_pressure;BME280_temperature;BME280_humidity;BME280_pressure;Samples;Min_cycle;Max_cycle;Signal;HPM_P1;HPM_P2
2021/11/18 00:01:17;;;;;;;58.60;24.90;;;;;;;5.62;97.76;102121.56;4992936;28;20088;-71
2021/11/18 00:03:44;;;;;;;64.15;24.75;;;;;;;5.58;97.76;102112.28;4992855;28;20441;-71
2021/11/18 00:06:11;;;;;;;50.22;24.17;;;;;;;5.54;98.30;102113.38;4993143;28;20483;-71
2021/11/18 00:08:39;;;;;;;48.03;23.27;;;;;;;5.56;98.20;102111.53;4991013;28;20811;-72
2021/11/18 00:11:08;;;;;;;60.47;24.67;;;;;;;5.53;98.47;102106.50;4991494;28;20133;-71
2021/11/18 00:13:36;;;;;;;49.17;24.05;;;;;;;5.57;98.42;102108.00;4991482;28;20211;-72
2021/11/18 00:16:04;;;;;;;52.13;24.10;;;;;;;5.67;97.98;102098.75;4991147;28;20104;-72
2021/11/18 00:18:34;;;;;;;59.83;23.73;;;;;;;5.65;98.52;102099.78;4991195;28;20086;-72
2021/11/18 00:21:05;;;;;;;58.38;23.55;;;;;;;5.61;98.23;102104.31;4991274;28;20116;-72
2021/11/18 00:23:36;;;;;;;63.22;24.98;;;;;;;5.64;97.72;102114.53;4992743;28;20085;-72
2021/11/18 00:26:05;;;;;;;64.47;23.33;;;;;;;5.74;98.01;102099.22;4995962;28;20477;-72
2021/11/18 00:28:33;;;;;;;53.78;23.67;;;;;;;5.71;98.11;102124.53;4997153;28;20081;-72
2021/11/18 00:31:00;;;;;;;55.75;24.65;;;;;;;5.76;98.02;102119.91;4996996;28;20046;-70
2021/11/18 00:33:27;;;;;;;61.83;24.17;;;;;;;5.72;97.70;102110.63;4994740;28;20105;-70
2021/11/18 00:35:54;;;;;;;63.45;23.77;;;;;;;5.89;97.70;102107.94;4994990;28;20078;-70
2021/11/18 00:38:21;;;;;;;51.13;24.40;;;;;;;5.88;97.20;102103.63;4992539;28;20093;-70
2021/11/18 00:40:50;;;;;;;58.78;23.05;;;;;;;5.91;97.45;102095.69;4992947;28;20121;-69
2021/11/18 00:43:19;;;;;;;56.17;24.30;;;;;;;5.99;96.99;102106.47;4973471;28;20113;-70
2021/11/18 00:45:47;;;;;;;60.10;24.00;;;;;;;5.98;97.18;102107.41;4975654;28;20498;-68
2021/11/18 00:48:15;;;;;;;49.83;23.42;;;;;;;5.97;96.81;102105.72;4973101;28;20134;-69
2021/11/18 00:50:45;;;;;;;54.15;23.60;;;;;;;5.98;96.82;102121.22;4973381;28;20097;-70
2021/11/18 00:53:12;;;;;;;51.15;23.58;;;;;;;5.97;96.89;102110.91;4973427;28;20130;-69
2021/11/18 00:55:38;;;;;;;55.20;24.38;;;;;;;5.96;97.21;102112.69;4976859;28;20142;-70
2021/11/18 00:58:06;;;;;;;51.05;23.52;;;;;;;5.96;97.58;102125.69;4976389;28;20054;-70
2021/11/18 01:00:36;;;;;;;60.13;25.48;;;;;;;6.03;96.81;102128.75;4976619;28;20138;-70
2021/11/18 01:03:04;;;;;;;59.63;25.00;;;;;;;6.12;96.62;102125.63;4975884;28;20481;-70
2021/11/18 01:05:32;;;;;;;62.80;25.60;;;;;;;6.12;96.25;102120.41;4975415;28;20055;-69
2021/11/18 01:08:01;;;;;;;49.97;25.15;;;;;;;6.09;96.74;102120.59;4975075;28;20138;-69
2021/11/18 01:10:32;;;;;;;55.92;24.27;;;;;;;5.96;96.87;102130.03;4975188;28;20134;-69
2021/11/18 01:12:58;;;;;;;62.88;26.17;;;;;;;5.96;96.41;102117.03;4975936;28;20047;-69
2021/11/18 01:15:28;;;;;;;50.67;24.17;;;;;;;5.98;96.79;102123.81;4976215;28;20134;-69
2021/11/18 01:17:56;;;;;;;57.55;25.90;;;;;;;6.02;96.86;102124.47;4975581;28;20086;-69
2021/11/18 01:20:24;;;;;;;62.20;26.65;;;;;;;6.01;96.84;102119.38;4975749;28;20082;-69
2021/11/18 01:22:52;;;;;;;55.42;25.25;;;;;;;6.03;96.78;102120.97;4976112;28;20069;-69
2021/11/18 01:25:21;;;;;;;62.35;27.60;;;;;;;5.97;96.43;102127.34;4976071;28;20134;-69
2021/11/18 01:27:48;;;;;;;57.88;25.77;;;;;;;5.99;96.77;102135.88;4976299;28;20051;-69
2021/11/18 01:30:20;;;;;;;63.97;26.60;;;;;;;6.01;96.67;102130.59;4976019;28;20101;-69
2021/11/18 01:32:47;;;;;;;64.22;26.20;;;;;;;5.97;96.49;102147.28;4975610;28;20129;-69
2021/11/18 01:35:16;;;;;;;57.88;25.55;;;;;;;5.91;96.69;102145.06;4975046;28;20129;-69
2021/11/18 01:37:42;;;;;;;60.92;27.90;;;;;;;5.89;97.02;102139.94;4974946;28;20134;-69
2021/11/18 01:40:13;;;;;;;62.10;26.90;;;;;;;5.84;96.54;102147.13;4974851;28;20189;-69
2021/11/18 01:42:40;;;;;;;51.95;24.50;;;;;;;5.89;96.40;102150.34;4974877;28;20491;-68
2021/11/18 01:45:09;;;;;;;57.17;26.98;;;;;;;5.90;96.28;102157.19;4975088;28;20526;-68
2021/11/18 01:47:36;;;;;;;64.05;24.30;;;;;;;5.89;96.77;102160.72;4974609;28;20097;-69
2021/11/18 01:50:04;;;;;;;58.90;26.10;;;;;;;5.90;96.49;102161.56;4974559;28;20089;-69
2021/11/18 01:52:33;;;;;;;63.85;26.83;;;;;;;5.95;96.37;102160.38;4977629;28;20074;-71
2021/11/18 01:55:00;;;;;;;58.53;24.35;;;;;;;5.90;96.18;102157.19;4977395;28;20047;-71
2021/11/18 01:57:32;;;;;;;56.17;24.80;;;;;;;5.87;96.15;102152.16;4976336;28;20051;-70
2021/11/18 01:59:59;;;;;;;58.95;26.88;;;;;;;5.87;96.47;102149.56;4975157;28;20051;-68
2021/11/18 02:02:28;;;;;;;60.47;25.80;;;;;;;5.85;95.92;102158.34;4975029;28;20085;-69
2021/11/18 02:04:58;;;;;;;55.10;25.75;;;;;;;5.88;96.50;102164.22;4974777;28;20139;-69
2021/11/18 02:07:25;;;;;;;69.03;26.60;;;;;;;5.89;96.61;102155.53;4973409;28;20062;-68
2021/11/18 02:09:53;;;;;;;64.75;26.63;;;;;;;5.78;96.23;102157.03;4974250;28;20078;-70
2021/11/18 02:12:24;;;;;;;61.70;26.02;;;;;;;5.67;96.71;102155.88;4974573;28;20046;-69
2021/11/18 02:14:51;;;;;;;58.30;24.58;;;;;;;5.59;96.82;102157.25;4973937;28;20090;-70
2021/11/18 02:17:20;;;;;;;61.08;24.77;;;;;;;5.57;97.13;102159.94;4973764;28;20126;-71
2021/11/18 02:19:49;;;;;;;56.28;25.15;;;;;;;5.52;97.66;102156.78;4973772;28;20061;-70
2021/11/18 02:22:18;;;;;;;56.53;24.48;;;;;;;5.52;96.46;102156.78;4974142;28;20114;-70
2021/11/18 02:24:50;;;;;;;52.50;24.02;;;;;;;5.46;97.30;102156.28;4973746;28;20082;-70
2021/11/18 02:27:22;;;;;;;57.38;25.55;;;;;;;5.46;97.55;102171.84;4973524;28;20062;-70
2021/11/18 02:29:51;;;;;;;67.32;25.73;;;;;;;5.43;97.85;102164.22;4973551;28;20535;-70
2021/11/18 02:32:21;;;;;;;59.67;25.80;;;;;;;5.41;97.45;102168.66;4973736;28;20137;-70
2021/11/18 02:34:51;;;;;;;54.15;24.65;;;;;;;5.44;97.31;102169.34;4974545;28;20146;-70
2021/11/18 02:37:20;;;;;;;59.92;26.05;;;;;;;5.46;96.73;102167.50;4976004;28;20059;-69
2021/11/18 02:39:47;;;;;;;73.82;26.50;;;;;;;5.41;97.42;102166.91;4974045;28;20330;-68
2021/11/18 02:42:15;;;;;;;56.28;27.27;;;;;;;5.29;97.62;102175.38;4973454;28;20137;-69
2021/11/18 02:44:42;;;;;;;69.47;26.63;;;;;;;5.31;97.64;102178.72;4973482;28;20130;-70
2021/11/18 02:47:12;;;;;;;63.08;25.40;;;;;;;5.35;97.59;102175.03;4973196;28;20550;-69
2021/11/18 02:49:42;;;;;;;62.72;26.52;;;;;;;5.33;97.66;102182.06;4973452;28;20129;-70
2021/11/18 02:52:09;;;;;;;64.78;27.02;;;;;;;5.29;98.09;102185.75;4973957;28;20082;-70
2021/11/18 02:54:38;;;;;;;69.25;27.70;;;;;;;5.36;97.93;102183.66;4973824;28;20468;-70
2021/11/18 02:57:04;;;;;;;63.90;28.35;;;;;;;5.40;97.63;102183.41;4973291;28;20093;-69
2021/11/18 02:59:36;;;;;;;67.20;26.67;;;;;;;5.42;97.22;102189.34;4974747;28;20089;-70
2021/11/18 03:02:07;;;;;;;65.30;26.75;;;;;;;5.44;96.74;102177.13;4975052;28;20499;-69
2021/11/18 03:04:35;;;;;;;71.28;28.83;;;;;;;5.45;97.20;102181.41;4974608;28;20047;-68
2021/11/18 03:07:02;;;;;;;70.70;29.05;;;;;;;5.54;97.18;102190.44;4972707;28;20101;-68
2021/11/18 03:09:29;;;;;;;69.75;28.55;;;;;;;5.55;96.61;102192.94;4987637;23;20053;-67
2021/11/18 03:11:58;;;;;;;65.22;27.13;;;;;;;5.57;96.74;102188.50;4962015;28;20138;-67
2021/11/18 03:14:27;;;;;;;77.00;29.27;;;;;;;5.54;96.77;102186.09;4953994;28;20051;-68
2021/11/18 03:21:16;;;;;;;66.10;27.05;;;;;;;5.59;96.87;102184.06;4952525;29;20526;-65
2021/11/18 03:24:27;;;;;;;74.68;28.17;;;;;;;5.59;96.84;102178.88;4951723;29;20099;-68
2021/11/18 03:27:34;;;;;;;72.97;29.45;;;;;;;5.56;96.83;102179.03;4952918;28;20118;-68
2021/11/18 03:30:02;;;;;;;68.07;28.10;;;;;;;5.66;96.61;102184.56;4953700;29;20575;-68
2021/11/18 03:32:28;;;;;;;71.65;29.45;;;;;;;5.67;96.15;102186.25;4953737;28;20404;-67
2021/11/18 03:34:55;;;;;;;71.13;27.73;;;;;;;5.64;96.52;102182.06;4953495;29;20130;-67
2021/11/18 03:37:22;;;;;;;71.70;28.40;;;;;;;5.62;96.59;102189.09;4953385;28;20138;-66
2021/11/18 03:39:48;;;;;;;73.72;28.40;;;;;;;5.60;96.04;102184.91;4953326;29;20051;-66
2021/11/18 03:42:16;;;;;;;67.78;28.23;;;;;;;5.59;96.03;102178.03;4953683;29;20051;-66
2021/11/18 03:44:43;;;;;;;73.10;28.27;;;;;;;5.64;96.29;102181.22;4953661;28;20519;-66
2021/11/18 03:47:14;;;;;;;64.57;26.92;;;;;;;5.61;96.26;102184.81;4953931;28;20108;-66
2021/11/18 03:49:40;;;;;;;65.60;28.17;;;;;;;5.64;95.86;102192.44;4953578;29;20476;-67
2021/11/18 03:52:11;;;;;;;62.00;26.55;;;;;;;5.70;95.80;102193.81;4953521;29;20090;-67
2021/11/18 03:54:39;;;;;;;68.40;28.33;;;;;;;5.72;95.91;102196.34;4953605;29;20273;-67
2021/11/18 03:57:07;;;;;;;64.13;26.23;;;;;;;5.66;95.83;102193.19;4953225;28;20134;-68
2021/11/18 03:59:36;;;;;;;72.15;27.55;;;;;;;5.62;95.71;102186.50;4952957;29;20047;-67
2021/11/18 04:02:04;;;;;;;63.13;26.05;;;;;;;5.63;96.42;102184.72;4953298;29;20086;-68
2021/11/18 04:04:36;;;;;;;62.70;28.08;;;;;;;5.61;96.34;102187.41;4953325;29;20229;-67
2021/11/18 04:07:03;;;;;;;63.75;27.05;;;;;;;5.67;95.74;102201.81;4952943;28;20082;-67
2021/11/18 04:09:30;;;;;;;70.93;26.13;;;;;;;5.64;95.98;102192.44;4952902;29;20055;-67
2021/11/18 04:12:00;;;;;;;70.07;26.50;;;;;;;5.60;96.06;102200.50;4953149;29;20059;-67
2021/11/18 04:14:27;;;;;;;68.50;29.77;;;;;;;5.59;96.31;102180.63;4952514;28;20054;-67
2021/11/18 04:16:54;;;;;;;67.07;26.92;;;;;;;5.55;96.32;102181.72;4952388;28;20134;-68
2021/11/18 04:19:21;;;;;;;69.75;27.92;;;;;;;5.57;96.08;102185.91;4952016;29;20106;-67
2021/11/18 04:21:50;;;;;;;68.80;29.10;;;;;;;5.61;95.87;102184.81;4952070;29;20094;-67
2021/11/18 04:24:20;;;;;;;71.82;28.10;;;;;;;5.57;96.47;102187.66;4953283;28;20106;-67
2021/11/18 04:26:48;;;;;;;71.35;27.10;;;;;;;5.63;96.14;102200.31;4970894;28;20142;-67
2021/11/18 04:29:17;;;;;;;69.97;27.17;;;;;;;5.63;96.59;102195.13;4973110;28;20157;-68
2021/11/18 04:31:44;;;;;;;71.65;26.73;;;;;;;5.62;96.47;102199.47;4975857;28;20089;-67
2021/11/18 04:34:11;;;;;;;68.90;26.77;;;;;;;5.56;96.27;102197.22;4975586;28;20063;-67
2021/11/18 04:36:42;;;;;;;65.90;26.15;;;;;;;5.58;96.52;102182.41;4955511;28;20130;-67
2021/11/18 04:39:10;;;;;;;67.30;26.48;;;;;;;5.55;96.54;102200.75;4956365;29;20047;-67
2021/11/18 04:41:39;;;;;;;67.85;27.63;;;;;;;5.61;96.49;102207.34;4956174;29;20086;-67
2021/11/18 04:44:09;;;;;;;67.05;25.48;;;;;;;5.49;96.14;102203.66;4956233;29;20389;-68
2021/11/18 04:46:41;;;;;;;58.45;25.42;;;;;;;5.53;96.56;102197.38;4955203;28;20047;-67
2021/11/18 04:49:12;;;;;;;70.15;25.95;;;;;;;5.49;96.62;102195.03;4955342;29;20051;-67
2021/11/18 04:51:42;;;;;;;57.75;25.67;;;;;;;5.49;96.35;102198.47;4956308;28;20539;-68
2021/11/18 04:54:10;;;;;;;60.08;24.15;;;;;;;5.44;96.35;102203.09;4963007;28;20103;-67
2021/11/18 04:56:40;;;;;;;60.50;26.55;;;;;;;5.47;96.53;102210.72;4974034;28;20508;-68
2021/11/18 04:59:07;;;;;;;69.22;25.58;;;;;;;5.54;96.03;102216.41;4971205;28;20062;-67
2021/11/18 05:01:35;;;;;;;61.03;23.77;;;;;;;5.57;95.98;102227.47;4974891;28;20046;-67
2021/11/18 05:04:03;;;;;;;60.10;24.00;;;;;;;5.51;96.07;102222.59;4975003;28;20168;-67
2021/11/18 05:06:30;;;;;;;60.50;23.95;;;;;;;5.51;96.25;102221.75;4975309;28;20494;-67
2021/11/18 05:08:58;;;;;;;65.28;24.35;;;;;;;5.57;95.83;102222.25;4975735;28;20051;-67
2021/11/18 05:12:19;;;;;;;64.78;24.10;;;;;;;5.59;95.97;102235.16;4975697;28;20137;-67
2021/11/18 05:15:41;;;;;;;61.30;22.95;;;;;;;5.52;96.08;102226.03;4932587;28;20595;-67
2021/11/18 05:18:09;;;;;;;62.47;23.55;;;;;;;5.57;96.38;102237.84;4974954;28;20055;-67
2021/11/18 05:20:36;;;;;;;60.28;23.80;;;;;;;5.59;96.04;102232.56;4975476;28;20133;-68
2021/11/18 05:23:03;;;;;;;52.95;23.25;;;;;;;5.64;96.22;102236.59;4975592;28;20430;-67
2021/11/18 05:25:32;;;;;;;55.92;22.55;;;;;;;5.61;95.81;102236.75;4975617;28;20133;-67
2021/11/18 05:28:01;;;;;;;59.42;23.30;;;;;;;5.66;96.03;102245.13;4975172;28;20090;-67
2021/11/18 05:30:32;;;;;;;59.53;22.38;;;;;;;5.61;95.95;102236.75;5010295;23;20134;-86
2021/11/18 05:33:01;;;;;;;56.25;22.90;;;;;;;5.65;96.29;102220.09;4960997;29;20047;-86
2021/11/18 05:35:30;;;;;;;58.22;23.02;;;;;;;5.58;96.33;102218.75;4960349;29;20043;-86
2021/11/18 05:37:57;;;;;;;62.97;22.15;;;;;;;5.66;95.93;102226.94;4960247;29;20130;-84
2021/11/18 05:40:25;;;;;;;49.60;22.05;;;;;;;5.61;96.41;102223.78;4957976;28;20061;-84
2021/11/18 05:45:27;;;;;;;61.80;25.20;;;;;;;5.68;95.65;102219.03;5026515;23;20122;-80
2021/11/18 05:47:55;;;;;;;56.45;22.45;;;;;;;5.67;96.04;102205.22;4973913;29;20051;-78
2021/11/18 05:50:24;;;;;;;51.35;21.60;;;;;;;5.76;95.63;102192.66;4978216;28;20039;-79
2021/11/18 05:52:51;;;;;;;58.05;20.85;;;;;;;5.83;95.68;102214.75;4974197;28;20497;-82
2021/11/18 05:55:21;;;;;;;56.67;21.50;;;;;;;5.90;95.76;102214.38;4974612;28;20055;-80
2021/11/18 05:58:02;;;;;;;53.55;20.63;;;;;;;5.89;95.29;102206.66;4973110;29;20082;-82
2021/11/18 06:00:34;;;;;;;52.95;19.40;;;;;;;5.96;94.84;102213.19;4978393;29;20078;-84
2021/11/18 06:03:05;;;;;;;50.70;22.17;;;;;;;5.91;94.93;102220.41;4977585;28;20036;-83
2021/11/18 06:05:46;;;;;;;51.03;20.77;;;;;;;5.99;95.24;102223.41;4976228;29;20284;-85
2021/11/18 06:08:29;;;;;;;42.70;19.10;;;;;;;6.10;95.47;102231.44;4974056;29;20094;-83
2021/11/18 06:10:59;;;;;;;47.20;19.92;;;;;;;6.11;94.61;102235.69;4977768;28;20035;-82
2021/11/18 06:13:51;;;;;;;53.17;20.10;;;;;;;5.99;95.35;102228.59;4978810;28;20053;-83
2021/11/18 06:16:26;;;;;;;51.85;20.30;;;;;;;6.05;95.35;102223.06;4976989;28;20037;-82
2021/11/18 06:19:04;;;;;;;46.17;19.33;;;;;;;6.10;95.09;102222.78;4978565;29;20079;-83
2021/11/18 06:21:33;;;;;;;59.38;20.30;;;;;;;6.13;95.22;102218.25;4978582;28;20137;-83
2021/11/18 06:24:01;;;;;;;49.97;21.30;;;;;;;6.16;94.78;102215.44;4968585;23;20047;-70
2021/11/18 06:26:28;;;;;;;50.85;19.02;;;;;;;6.23;94.89;102223.72;4943277;29;20047;-71
2021/11/18 06:28:56;;;;;;;45.75;18.45;;;;;;;6.30;94.50;102223.28;4935251;29;20079;-70
2021/11/18 06:31:24;;;;;;;45.88;19.65;;;;;;;6.29;94.04;102229.41;4935270;29;20114;-70
2021/11/18 06:33:52;;;;;;;47.08;19.60;;;;;;;6.31;94.44;102230.16;4948158;29;20126;-70
2021/11/18 06:36:22;;;;;;;49.97;18.10;;;;;;;6.44;93.57;102227.69;4935395;28;20107;-70
2021/11/18 06:38:51;;;;;;;44.30;17.38;;;;;;;6.46;93.92;102223.22;4939487;29;20122;-71
2021/11/18 06:41:19;;;;;;;40.38;17.27;;;;;;;6.46;93.34;102231.03;4934271;29;20467;-70
2021/11/18 06:43:46;;;;;;;41.50;16.90;;;;;;;6.41;93.44;102242.63;4933837;29;20083;-69
2021/11/18 06:46:13;;;;;;;42.38;17.05;;;;;;;6.46;94.07;102244.03;4933491;29;20138;-69
2021/11/18 06:48:42;;;;;;;40.40;16.80;;;;;;;6.42;93.70;102252.09;4933114;29;20080;-69
2021/11/18 06:51:12;;;;;;;40.30;15.98;;;;;;;6.43;93.69;102265.03;4934112;29;20067;-69
2021/11/18 06:53:42;;;;;;;42.85;16.30;;;;;;;6.40;93.74;102264.34;4933359;29;20108;-69
2021/11/18 06:56:11;;;;;;;37.33;16.27;;;;;;;6.44;94.01;102265.84;4933696;29;20222;-69
2021/11/18 06:58:37;;;;;;;47.42;17.13;;;;;;;6.40;94.23;102269.56;4933599;29;20134;-70
2021/11/18 07:01:05;;;;;;;39.72;16.42;;;;;;;6.39;94.21;102270.47;4933394;29;20139;-69
2021/11/18 07:03:32;;;;;;;35.85;15.20;;;;;;;6.40;94.07;102272.16;4946477;29;20083;-69
2021/11/18 07:06:00;;;;;;;42.70;16.02;;;;;;;6.33;94.45;102282.91;4937179;29;20547;-70
2021/11/18 07:08:27;;;;;;;37.75;16.23;;;;;;;6.33;94.18;102275.09;4941846;29;20076;-70
2021/11/18 07:10:53;;;;;;;30.88;14.63;;;;;;;6.38;94.39;102268.81;4941023;29;20508;-70
2021/11/18 07:13:24;;;;;;;36.67;16.15;;;;;;;6.41;94.24;102272.06;4945217;28;20091;-70
2021/11/18 07:15:52;;;;;;;42.90;15.27;;;;;;;6.23;93.63;102279.16;4934628;29;20083;-71
2021/11/18 07:18:19;;;;;;;41.72;16.95;;;;;;;5.97;94.14;102283.25;4935265;29;20500;-70
2021/11/18 07:20:46;;;;;;;35.80;14.82;;;;;;;5.91;94.36;102295.75;4933533;29;20071;-71
2021/11/18 07:23:14;;;;;;;35.10;14.90;;;;;;;5.76;95.17;102293.94;4936116;29;20107;-71
2021/11/18 07:25:41;;;;;;;36.97;14.13;;;;;;;5.62;94.88;102294.72;4935480;29;20452;-71
2021/11/18 07:28:08;;;;;;;29.90;13.38;;;;;;;5.57;94.66;102289.78;4934496;29;20056;-71
2021/11/18 07:30:35;;;;;;;32.30;12.63;;;;;;;5.55;94.92;102290.78;4934424;29;20058;-71
2021/11/18 07:33:05;;;;;;;28.98;13.45;;;;;;;5.57;95.32;102284.59;4934825;29;20130;-71
2021/11/18 07:35:32;;;;;;;29.05;12.93;;;;;;;5.61;95.06;102282.66;4934497;29;20048;-71
2021/11/18 07:37:59;;;;;;;32.83;13.20;;;;;;;5.67;94.65;102290.94;4930885;29;20487;-71
2021/11/18 07:40:27;;;;;;;32.33;12.40;;;;;;;5.67;94.73;102295.31;4933719;29;20127;-71
2021/11/18 07:42:54;;;;;;;29.73;11.43;;;;;;;5.73;94.43;102284.56;4934288;29;20468;-71
2021/11/18 07:45:22;;;;;;;35.38;14.27;;;;;;;5.79;94.99;102294.63;4934555;29;20090;-71
2021/11/18 07:47:49;;;;;;;27.58;12.80;;;;;;;5.81;94.43;102302.31;4934129;29;20052;-71
2021/11/18 07:50:17;;;;;;;28.95;12.75;;;;;;;5.90;94.86;102299.25;4935381;29;20083;-71
2021/11/18 07:52:43;;;;;;;31.20;12.13;;;;;;;6.01;94.54;102307.31;4935051;29;20094;-71
2021/11/18 07:55:15;;;;;;;31.75;12.23;;;;;;;6.11;94.44;102307.63;4934581;29;20094;-71
2021/11/18 07:57:43;;;;;;;32.17;11.73;;;;;;;6.02;93.90;102303.78;4934124;29;20139;-71
2021/11/18 08:00:13;;;;;;;29.63;12.30;;;;;;;6.14;93.59;102313.50;4934367;29;20382;-71
2021/11/18 08:02:40;;;;;;;27.67;11.65;;;;;;;6.15;93.33;102309.94;4933710;29;20127;-71
2021/11/18 08:05:08;;;;;;;25.55;12.07;;;;;;;6.23;93.46;102309.50;4934375;29;20419;-71
2021/11/18 08:07:34;;;;;;;26.58;11.77;;;;;;;6.33;92.96;102313.28;4934495;29;20509;-71
2021/11/18 08:10:01;;;;;;;27.92;10.95;;;;;;;6.23;92.55;102314.72;4935188;29;20173;-72
2021/11/18 08:12:28;;;;;;;33.50;11.88;;;;;;;6.23;92.68;102312.94;4934919;29;20063;-71
2021/11/18 08:14:56;;;;;;;28.90;11.75;;;;;;;6.25;93.41;102312.88;4935425;29;20447;-71
2021/11/18 08:17:23;;;;;;;22.38;11.13;;;;;;;6.29;93.51;102310.00;4935629;29;20083;-71
2021/11/18 08:19:49;;;;;;;28.35;11.50;;;;;;;6.37;93.25;102311.34;4937390;29;20485;-71
2021/11/18 08:22:16;;;;;;;27.38;11.07;;;;;;;6.43;93.58;102318.78;4936618;29;20082;-71
2021/11/18 08:24:43;;;;;;;27.15;11.02;;;;;;;6.44;93.68;102312.66;4935710;29;20142;-71
2021/11/18 08:27:10;;;;;;;28.10;11.40;;;;;;;6.54;93.37;102314.66;4936831;29;20070;-71
2021/11/18 08:29:37;;;;;;;32.17;12.45;;;;;;;6.75;93.07;102302.13;4936387;29;20472;-71
2021/11/18 08:32:07;;;;;;;23.88;11.40;;;;;;;6.77;93.07;102307.25;4935939;29;20079;-71
2021/11/18 08:34:35;;;;;;;32.83;12.70;;;;;;;6.90;93.39;102310.81;4934356;29;20052;-72
2021/11/18 08:37:02;;;;;;;28.35;12.40;;;;;;;6.93;93.12;102306.25;4933229;29;20134;-71
2021/11/18 08:39:30;;;;;;;30.98;12.40;;;;;;;7.06;92.89;102315.94;4930602;29;20122;-71
2021/11/18 08:41:59;;;;;;;35.20;12.50;;;;;;;7.11;92.62;102309.50;4933888;29;20051;-71
2021/11/18 08:44:33;;;;;;;30.35;11.95;;;;;;;7.23;91.98;102313.97;4933264;29;20079;-71
2021/11/18 08:47:03;;;;;;;30.25;12.43;;;;;;;7.26;91.71;102329.41;4929566;29;20154;-71
2021/11/18 08:49:32;;;;;;;26.92;11.40;;;;;;;7.32;91.94;102330.81;4930992;29;20146;-70
2021/11/18 08:52:06;;;;;;;29.23;11.52;;;;;;;7.38;91.63;102327.00;4931046;29;20056;-71
2021/11/18 08:54:33;;;;;;;29.48;12.05;;;;;;;7.55;90.83;102329.41;4932516;29;20051;-71
2021/11/18 08:57:01;;;;;;;24.80;11.15;;;;;;;7.65;90.61;102326.09;4930143;29;20202;-71
2021/11/18 08:59:28;;;;;;;27.38;11.82;;;;;;;7.69;90.33;102338.94;4932223;29;20134;-71
2021/11/18 09:01:58;;;;;;;27.83;11.68;;;;;;;7.85;89.91;102345.72;4932042;29;20452;-71
2021/11/18 09:04:26;;;;;;;27.45;11.23;;;;;;;7.96;89.31;102355.47;4932561;29;20530;-71
2021/11/18 09:06:55;;;;;;;29.83;11.20;;;;;;;7.88;89.71;102352.50;4932806;29;20082;-71
2021/11/18 09:09:23;;;;;;;34.00;11.73;;;;;;;7.95;89.44;102349.41;4932488;29;20090;-71
2021/11/18 09:11:52;;;;;;;26.50;11.95;;;;;;;8.15;87.99;102355.13;4933834;29;20051;-71
2021/11/18 09:14:24;;;;;;;31.65;12.15;;;;;;;8.26;88.32;102356.09;4932400;29;20044;-70
2021/11/18 09:16:51;;;;;;;30.52;11.88;;;;;;;8.15;88.85;102355.94;4935948;29;20050;-72
2021/11/18 09:19:20;;;;;;;31.00;12.82;;;;;;;8.30;88.15;102352.38;4936003;29;20079;-72
2021/11/18 09:21:48;;;;;;;34.22;12.43;;;;;;;8.34;87.99;102354.81;4936433;29;20119;-72
2021/11/18 09:24:27;;;;;;;32.05;13.20;;;;;;;8.37;87.84;102349.41;4936295;29;20056;-70
2021/11/18 09:26:57;;;;;;;33.47;13.38;;;;;;;8.32;87.58;102355.75;4936836;29;20138;-71
2021/11/18 09:29:26;;;;;;;32.72;12.57;;;;;;;8.34;87.59;102357.41;4936803;29;20138;-71
2021/11/18 09:31:56;;;;;;;32.55;13.32;;;;;;;8.29;87.83;102361.13;4937111;28;20539;-71
2021/11/18 09:34:27;;;;;;;30.38;13.27;;;;;;;8.26;87.55;102374.34;4938105;29;20147;-71
2021/11/18 09:36:55;;;;;;;32.87;13.50;;;;;;;8.15;87.54;102379.41;4938341;28;20412;-71
2021/11/18 09:39:25;;;;;;;26.98;12.27;;;;;;;8.11;88.50;102375.34;4939141;29;20060;-71
2021/11/18 09:42:00;;;;;;;30.70;13.52;;;;;;;8.08;88.16;102365.09;4936813;29;20053;-71
2021/11/18 09:44:49;;;;;;;32.65;13.77;;;;;;;8.15;87.81;102371.59;4933446;29;20067;-71
2021/11/18 09:47:59;;;;;;;30.25;14.00;;;;;;;8.13;88.14;102372.63;4935820;29;20056;-71
2021/11/18 09:50:43;;;;;;;33.55;13.52;;;;;;;8.14;87.82;102364.72;4897577;29;20081;-71
2021/11/18 09:53:18;;;;;;;38.00;12.80;;;;;;;8.27;87.67;102364.75;4934887;29;20051;-71
2021/11/18 09:55:51;;;;;;;29.52;12.52;;;;;;;8.31;87.63;102372.28;4936050;29;20126;-71
2021/11/18 09:58:25;;;;;;;;;;;;;;;8.38;87.24;102356.28;4931898;29;20516;-70
2021/11/18 10:01:07;;;;;;;30.80;13.27;;;;;;;8.41;87.07;102356.09;4936238;29;20034;-71
2021/11/18 10:03:38;;;;;;;32.33;12.93;;;;;;;8.47;87.09;102355.69;4936631;29;20563;-71
2021/11/18 10:06:27;;;;;;;29.63;12.88;;;;;;;8.58;86.73;102358.41;4937087;29;20138;-71
2021/11/18 10:09:03;;;;;;;29.27;13.13;;;;;;;8.67;86.45;102352.59;4931805;29;20397;-71
2021/11/18 10:11:43;;;;;;;35.35;12.80;;;;;;;8.73;85.61;102357.41;4935829;29;20083;-71
2021/11/18 10:14:25;;;;;;;26.65;12.00;;;;;;;8.81;85.42;102359.50;4934664;29;20059;-71
2021/11/18 10:16:57;;;;;;;34.90;13.82;;;;;;;8.75;85.26;102365.97;4935858;29;20123;-70
2021/11/18 10:19:28;;;;;;;32.75;13.25;;;;;;;8.80;85.44;102363.88;4935482;29;20524;-71
2021/11/18 10:21:58;;;;;;;31.20;11.45;;;;;;;8.91;85.02;102365.78;4935563;29;20457;-71
2021/11/18 10:24:28;;;;;;;33.00;12.82;;;;;;;8.89;84.96;102360.66;4935075;29;20138;-70
2021/11/18 10:27:08;;;;;;;31.17;11.98;;;;;;;8.94;85.36;102366.41;4935000;29;20131;-70
2021/11/18 10:29:34;;;;;;;26.17;11.63;;;;;;;8.90;85.46;102364.94;4935742;29;20143;-71
2021/11/18 10:32:13;;;;;;;35.97;13.90;;;;;;;8.94;85.41;102369.03;4935254;29;20142;-70
2021/11/18 10:34:48;;;;;;;32.53;12.50;;;;;;;8.95;85.43;102382.91;4934082;29;20071;-71
2021/11/18 10:37:20;;;;;;;34.15;14.00;;;;;;;8.97;85.14;102371.44;4935548;29;20115;-71
2021/11/18 10:39:55;;;;;;;30.33;12.00;;;;;;;9.09;85.36;102374.13;4940797;29;20400;-71
2021/11/18 10:42:31;;;;;;;30.27;12.73;;;;;;;9.14;84.97;102361.59;4934418;29;20760;-71
2021/11/18 10:45:00;;;;;;;28.35;12.60;;;;;;;9.15;84.74;102363.28;4934878;29;20525;-70
2021/11/18 10:47:30;;;;;;;30.33;11.88;;;;;;;9.14;84.28;102362.44;4934559;29;20079;-71
2021/11/18 10:50:05;;;;;;;26.58;11.77;;;;;;;9.24;84.78;102363.50;4935484;29;20545;-71
2021/11/18 10:52:36;;;;;;;28.00;12.02;;;;;;;9.22;84.36;102360.16;4935370;29;20561;-70
2021/11/18 10:55:09;;;;;;;32.55;12.00;;;;;;;9.22;84.31;102367.16;4940304;29;20055;-71
2021/11/18 10:57:51;;;;;;;27.92;11.45;;;;;;;9.29;84.35;102357.94;4936599;28;20075;-70
2021/11/18 11:00:23;;;;;;;30.30;10.60;;;;;;;9.45;83.96;102355.13;4933860;29;20500;-70
2021/11/18 11:02:51;;;;;;;24.02;10.38;;;;;;;9.50;83.46;102360.84;4936966;29;20085;-70
2021/11/18 11:05:39;;;;;;;24.98;10.13;;;;;;;9.60;82.79;102349.63;4939703;29;20066;-70
2021/11/18 11:08:24;;;;;;;33.22;10.95;;;;;;;9.72;82.07;102357.56;4928541;28;20079;-70
2021/11/18 11:10:56;;;;;;;27.73;10.00;;;;;;;9.91;81.83;102352.72;4936905;29;20467;-71
2021/11/18 11:13:54;;;;;;;29.50;10.32;;;;;;;9.99;81.51;102361.66;4937382;29;20126;-71
2021/11/18 11:16:42;;;;;;;29.73;12.05;;;;;;;10.04;80.92;102345.63;4935115;29;20170;-71
2021/11/18 11:19:14;;;;;;;21.33;8.80;;;;;;;9.97;81.13;102350.47;4934164;29;20139;-70
2021/11/18 11:21:52;;;;;;;27.67;9.25;;;;;;;9.99;81.18;102351.19;4935549;29;20082;-71
2021/11/18 11:24:36;;;;;;;28.98;9.82;;;;;;;9.96;81.18;102351.41;4936434;29;20476;-71
2021/11/18 11:27:34;;;;;;;24.23;8.85;;;;;;;10.08;80.98;102343.63;4936157;29;20145;-71
2021/11/18 11:30:15;;;;;;;20.92;8.27;;;;;;;10.24;80.22;102346.84;4933761;29;20055;-71
2021/11/18 11:32:48;;;;;;;22.67;8.57;;;;;;;10.31;80.72;102345.44;4934869;29;20087;-71
2021/11/18 11:35:44;;;;;;;26.30;8.85;;;;;;;10.32;80.31;102335.81;4934441;29;20111;-71
2021/11/18 11:38:26;;;;;;;20.80;8.52;;;;;;;10.23;79.96;102332.09;4925490;29;20523;-71
2021/11/18 11:41:12;;;;;;;25.52;8.15;;;;;;;10.35;80.23;102331.19;4934857;29;20147;-71